createdAt,value
2022-11-16T00:02:20.999Z,99746.50
2022-11-16T00:04:49.334Z,99748.06
2022-11-16T00:07:17.551Z,99738.94
2022-11-16T00:09:46.034Z,99743.38
2022-11-16T00:12:15.504Z,99741.84
2022-11-16T00:14:43.622Z,99744.00
2022-11-16T00:17:11.626Z,99745.44
2022-11-16T00:19:39.685Z,99741.25
2022-11-16T00:22:07.950Z,99737.81
2022-11-16T00:24:36.479Z,99746.41
2022-11-16T00:27:04.669Z,99741.72
2022-11-16T00:29:34.249Z,99734.09
2022-11-16T00:32:02.429Z,99739.81
2022-11-16T00:34:30.476Z,99731.06
2022-11-16T00:36:58.956Z,99733.25
2022-11-16T00:39:27.075Z,99726.66
2022-11-16T00:41:57.718Z,99729.69
2022-11-16T00:44:25.756Z,99720.53
2022-11-16T00:46:55.274Z,99719.19
2022-11-16T00:49:23.266Z,99715.88
2022-11-16T00:51:51.279Z,99717.41
2022-11-16T00:54:19.467Z,99718.75
2022-11-16T00:56:47.567Z,99711.00
2022-11-16T00:59:15.627Z,99711.69
2022-11-16T01:01:43.767Z,99709.06
2022-11-16T01:04:13.305Z,99715.72
2022-11-16T01:06:41.330Z,99707.72
2022-11-16T01:09:09.372Z,99706.16
2022-11-16T01:11:55.586Z,99702.44
2022-11-16T01:14:23.615Z,99711.28
2022-11-16T01:16:51.974Z,99710.47
2022-11-16T01:19:21.354Z,99708.94
2022-11-16T01:21:49.447Z,99705.22
2022-11-16T01:24:17.566Z,99707.97
2022-11-16T01:26:45.648Z,99706.88
2022-11-16T01:29:13.881Z,99697.44
2022-11-16T01:31:41.958Z,99695.41
2022-11-16T01:34:10.205Z,99694.97
2022-11-16T01:36:39.638Z,99701.13
2022-11-16T01:39:07.768Z,99706.25
2022-11-16T01:41:36.984Z,99703.94
2022-11-16T01:44:07.857Z,99707.38
2022-11-16T01:46:35.850Z,99710.59
2022-11-16T01:49:06.920Z,99712.91
2022-11-16T01:51:35.873Z,99703.81
2022-11-16T01:54:09.755Z,99690.06
2022-11-16T01:56:39.767Z,99673.78
2022-11-16T01:59:08.128Z,99673.25
2022-11-16T02:01:36.270Z,99666.16
2022-11-16T02:04:04.309Z,99659.91
2022-11-16T02:06:38.538Z,99658.69
2022-11-16T02:09:46.903Z,99659.81
2022-11-16T02:12:33.522Z,99666.28
2022-11-16T02:15:13.781Z,99666.28
2022-11-16T02:17:53.045Z,99659.09
2022-11-16T02:20:54.469Z,99659.22
2022-11-16T02:24:16.104Z,99653.97
2022-11-16T02:27:15.552Z,99655.50
2022-11-16T02:29:49.041Z,99657.56
2022-11-16T02:32:22.494Z,99644.53
2022-11-16T02:34:55.510Z,99651.47
2022-11-16T02:37:29.749Z,99646.22
2022-11-16T02:40:00.273Z,99650.38
2022-11-16T02:42:34.172Z,99647.97
2022-11-16T02:45:07.259Z,99649.53
2022-11-16T02:47:40.567Z,99659.34
2022-11-16T02:50:13.140Z,99649.66
2022-11-16T02:52:41.159Z,99647.56
2022-11-16T02:55:10.492Z,99644.41
2022-11-16T02:57:50.381Z,99644.41
2022-11-16T03:00:24.037Z,99639.41
2022-11-16T03:03:01.139Z,99643.31
2022-11-16T03:05:34.645Z,99641.41
2022-11-16T03:08:10.264Z,99627.38
2022-11-16T03:10:58.662Z,99636.81
2022-11-16T03:13:31.996Z,99635.69
2022-11-16T03:16:03.913Z,99639.84
2022-11-16T03:18:32.595Z,99631.44
2022-11-16T03:21:11.473Z,99636.97
2022-11-16T03:23:39.650Z,99623.81
2022-11-16T03:26:12.559Z,99626.44
2022-11-16T03:28:49.339Z,99619.63
2022-11-16T03:31:29.590Z,99626.84
2022-11-16T03:34:01.340Z,99622.13
2022-11-16T03:36:34.951Z,99620.91
2022-11-16T03:39:07.639Z,99622.56
2022-11-16T03:41:39.333Z,99623.66
2022-11-16T03:44:09.926Z,99613.41
2022-11-16T03:46:40.059Z,99612.56
2022-11-16T03:49:08.117Z,99613.78
2022-11-16T03:51:36.208Z,99618.81
2022-11-16T03:54:04.468Z,99625.16
2022-11-16T03:56:32.543Z,99625.84
2022-11-16T03:59:00.521Z,99625.03
2022-11-16T04:01:28.602Z,99622.00
2022-11-16T04:03:58.161Z,99619.38
2022-11-16T04:06:43.916Z,99627.13
2022-11-16T04:09:29.571Z,99623.25
2022-11-16T04:12:15.441Z,99631.44
2022-11-16T04:15:01.851Z,99631.84
2022-11-16T04:17:47.623Z,99633.50
2022-11-16T04:20:35.158Z,99640.81
2022-11-16T04:23:26.031Z,99645.75
2022-11-16T04:25:54.477Z,99650.63
2022-11-16T04:28:26.182Z,99656.59
2022-11-16T04:31:15.448Z,99659.91
2022-11-16T04:34:01.148Z,99661.31
2022-11-16T04:36:48.329Z,99657.28
2022-11-16T04:39:16.694Z,99656.31
2022-11-16T04:42:02.878Z,99651.66
2022-11-16T04:44:51.300Z,99662.03
2022-11-16T04:47:18.380Z,99659.13
2022-11-16T04:49:46.528Z,99651.50
2022-11-16T04:52:15.924Z,99658.44
2022-11-16T04:54:43.990Z,99665.63
2022-11-16T04:57:12.097Z,99662.03
2022-11-16T04:59:40.396Z,99663.94
2022-11-16T05:02:11.017Z,99678.63
2022-11-16T05:04:40.626Z,99676.00
2022-11-16T05:07:11.087Z,99684.88
2022-11-16T05:09:43.058Z,99677.00
2022-11-16T05:12:14.821Z,99679.63
2022-11-16T05:14:43.138Z,99688.91
2022-11-16T05:17:14.561Z,99680.44
2022-11-16T05:20:00.385Z,99681.28
2022-11-16T05:22:28.839Z,99685.00
2022-11-16T05:24:58.533Z,99682.63
2022-11-16T05:27:28.192Z,99689.56
2022-11-16T05:29:56.790Z,99688.47
2022-11-16T05:32:25.956Z,99694.56
2022-11-16T05:34:56.707Z,99697.44
2022-11-16T05:37:26.775Z,99696.22
2022-11-16T05:39:57.058Z,99704.63
2022-11-16T05:42:26.694Z,99707.97
2022-11-16T05:44:54.722Z,99714.06
2022-11-16T05:47:22.746Z,99712.66
2022-11-16T05:49:50.815Z,99714.19
2022-11-16T05:52:18.833Z,99719.59
2022-11-16T05:54:47.166Z,99719.59
2022-11-16T05:57:15.496Z,99728.56
2022-11-16T05:59:45.150Z,99733.13
2022-11-16T06:02:13.250Z,99733.75
2022-11-16T06:04:41.282Z,99731.13
2022-11-16T06:07:09.475Z,99735.56
2022-11-16T06:09:37.638Z,99739.03
2022-11-16T06:12:06.614Z,99739.28
2022-11-16T06:14:34.606Z,99736.31
2022-11-16T06:17:04.012Z,99731.06
2022-11-16T06:19:32.669Z,99736.59
2022-11-16T06:22:01.103Z,99728.81
2022-11-16T06:24:29.140Z,99731.44
2022-11-16T06:26:57.501Z,99735.88
2022-11-16T06:29:25.575Z,99730.88
2022-11-16T06:31:53.930Z,99731.63
2022-11-16T06:34:23.369Z,99735.22
2022-11-16T06:36:51.387Z,99736.16
2022-11-16T06:39:19.419Z,99740.34
2022-11-16T06:41:47.862Z,99750.03
2022-11-16T06:44:16.181Z,99743.84
2022-11-16T06:46:44.271Z,99748.84
2022-11-16T06:49:12.572Z,99759.28
2022-11-16T06:51:42.038Z,99752.97
2022-11-16T06:54:10.204Z,99768.97
2022-11-16T06:56:38.355Z,99769.59
2022-11-16T06:59:06.429Z,99765.56
2022-11-16T07:01:34.543Z,99767.69
2022-11-16T07:04:02.603Z,99769.50
2022-11-16T07:06:30.899Z,99769.75
2022-11-16T07:09:00.372Z,99782.03
2022-11-16T07:11:28.447Z,99788.47
2022-11-16T07:13:56.513Z,99786.34
2022-11-16T07:16:24.868Z,99792.19
2022-11-16T07:18:56.544Z,99803.41
2022-11-16T07:21:24.994Z,99795.75
2022-11-16T07:23:53.068Z,99803.84
2022-11-16T07:26:22.708Z,99816.72
2022-11-16T07:28:50.813Z,99817.94
2022-11-16T07:31:20.349Z,99816.16
2022-11-16T07:33:48.372Z,99818.41
2022-11-16T07:36:17.026Z,99822.59
2022-11-16T07:38:45.503Z,99828.78
2022-11-16T07:41:15.832Z,99829.28
2022-11-16T07:43:51.468Z,99824.28
2022-11-16T07:46:46.659Z,99830.84
2022-11-16T07:49:15.022Z,99842.53
2022-11-16T07:51:43.209Z,99850.03
2022-11-16T07:54:13.587Z,99852.16
2022-11-16T07:56:42.469Z,99846.59
2022-11-16T07:59:11.974Z,99863.16
2022-11-16T08:01:40.122Z,99861.16
2022-11-16T08:04:08.245Z,99858.56
2022-11-16T08:06:36.358Z,99861.03
2022-11-16T08:09:06.665Z,99871.19
2022-11-16T08:11:34.683Z,99865.81
2022-11-16T08:14:02.789Z,99866.78
2022-11-16T08:16:33.436Z,99870.81
2022-11-16T08:19:02.407Z,99865.22
2022-11-16T08:21:30.530Z,99875.47
2022-11-16T08:23:59.098Z,99877.75
2022-11-16T08:26:27.721Z,99866.97
2022-11-16T08:28:57.209Z,99871.00
2022-11-16T08:31:28.140Z,99866.72
2022-11-16T08:33:57.850Z,99864.00
2022-11-16T08:36:25.947Z,99871.88
2022-11-16T08:38:54.407Z,99866.28
2022-11-16T08:41:22.763Z,99875.81
2022-11-16T08:43:53.351Z,99870.56
2022-11-16T08:46:22.101Z,99875.13
2022-11-16T08:48:50.251Z,99877.63
2022-11-16T08:51:20.727Z,99875.69
2022-11-16T08:53:49.699Z,99873.78
2022-11-16T08:56:19.333Z,99883.25
2022-11-16T08:58:50.297Z,99892.06
2022-11-16T09:01:22.464Z,99895.28
2022-11-16T09:03:51.171Z,99895.25
2022-11-16T09:06:20.828Z,99895.63
2022-11-16T09:08:49.119Z,99903.41
2022-11-16T09:11:19.053Z,99901.84
2022-11-16T09:13:48.773Z,99907.94
2022-11-16T09:16:17.537Z,99900.50
2022-11-16T09:18:47.197Z,99898.00
2022-11-16T09:21:20.588Z,99907.44
2022-11-16T09:23:49.046Z,99904.56
2022-11-16T09:26:20.585Z,99903.34
2022-11-16T09:28:49.773Z,99905.84
2022-11-16T09:31:23.119Z,99912.34
2022-11-16T09:33:51.973Z,99908.03
2022-11-16T09:36:21.627Z,99908.63
2022-11-16T09:41:57.284Z,99918.09
2022-11-16T09:44:49.455Z,99919.75
2022-11-16T09:47:19.829Z,99916.66
2022-11-16T09:49:55.704Z,99908.72
2022-11-16T09:52:34.064Z,99911.09
2022-11-16T09:55:19.363Z,99915.81
2022-11-16T09:57:49.067Z,99925.44
2022-11-16T10:00:22.787Z,99920.66
2022-11-16T10:03:02.107Z,99926.44
2022-11-16T10:05:37.630Z,99930.81
2022-11-16T10:08:15.746Z,99917.13
2022-11-16T10:10:54.229Z,99924.25
2022-11-16T10:13:36.333Z,99928.22
2022-11-16T10:16:12.447Z,99929.41
2022-11-16T10:18:53.720Z,99920.28
2022-11-16T10:21:45.677Z,99931.59
2022-11-16T10:24:38.789Z,99927.53
2022-11-16T10:27:25.564Z,99927.28
2022-11-16T10:30:03.708Z,99933.69
2022-11-16T10:32:35.293Z,99933.09
2022-11-16T10:35:09.340Z,99931.53
2022-11-16T10:37:42.125Z,99932.94
2022-11-16T10:40:19.935Z,99928.47
2022-11-16T10:42:55.016Z,99920.75
2022-11-16T10:45:28.895Z,99927.34
2022-11-16T10:48:02.953Z,99927.91
2022-11-16T10:50:38.617Z,99923.34
2022-11-16T10:53:14.513Z,99930.53
2022-11-16T10:55:43.985Z,99927.94
2022-11-16T10:58:12.066Z,99920.34
2022-11-16T11:00:43.439Z,99924.66
2022-11-16T11:03:12.147Z,99919.34
2022-11-16T11:05:50.537Z,99911.44
2022-11-16T11:08:30.554Z,99907.28
2022-11-16T11:11:22.684Z,99914.84
2022-11-16T11:14:05.149Z,99910.66
2022-11-16T11:16:35.491Z,99910.63
2022-11-16T11:19:20.861Z,99910.16
2022-11-16T11:21:50.096Z,99920.84
2022-11-16T11:27:09.342Z,99901.56
2022-11-16T11:29:38.955Z,99893.19
2022-11-16T11:32:09.248Z,99895.00
2022-11-16T11:34:42.789Z,99886.13
2022-11-16T11:37:17.103Z,99897.31
2022-11-16T11:39:45.931Z,99889.13
2022-11-16T11:42:24.783Z,99892.63
2022-11-16T11:44:58.671Z,99887.09
2022-11-16T11:47:59.023Z,99885.25
2022-11-16T11:50:39.413Z,99875.28
2022-11-16T11:53:13.004Z,99873.06
2022-11-16T11:55:41.012Z,99869.69
2022-11-16T11:58:17.087Z,99868.16
2022-11-16T12:00:56.873Z,99870.75
2022-11-16T12:04:12.184Z,99874.88
2022-11-16T12:06:46.028Z,99873.06
2022-11-16T12:09:26.516Z,99867.41
2022-11-16T12:12:14.335Z,99872.75
2022-11-16T12:15:00.707Z,99871.72
2022-11-16T12:17:36.334Z,99869.97
2022-11-16T12:20:22.793Z,99864.56
2022-11-16T12:23:12.870Z,99866.94
2022-11-16T12:25:51.075Z,99855.94
2022-11-16T12:28:31.675Z,99861.47
2022-11-16T12:31:16.787Z,99862.56
2022-11-16T12:33:54.077Z,99864.28
2022-11-16T12:36:35.376Z,99866.09
2022-11-16T12:39:15.534Z,99870.97
2022-11-16T12:42:21.771Z,99871.84
2022-11-16T12:45:32.442Z,99864.16
2022-11-16T12:48:25.626Z,99863.59
2022-11-16T12:51:00.741Z,99851.16
2022-11-16T12:53:49.898Z,99853.50
2022-11-16T12:56:32.375Z,99848.09
2022-11-16T12:59:24.520Z,99848.22
2022-11-16T13:02:00.797Z,99845.88
2022-11-16T13:04:35.807Z,99852.41
2022-11-16T13:07:11.457Z,99849.34
2022-11-16T13:09:43.076Z,99845.16
2022-11-16T13:12:15.431Z,99838.50
2022-11-16T13:14:47.000Z,99840.91
2022-11-16T13:17:20.687Z,99832.69
2022-11-16T13:20:17.758Z,99829.63
2022-11-16T13:22:55.287Z,99825.72
2022-11-16T13:25:30.340Z,99827.94
2022-11-16T13:28:07.576Z,99823.09
2022-11-16T13:30:45.136Z,99822.97
2022-11-16T13:33:28.173Z,99822.97
2022-11-16T13:35:57.503Z,99809.50
2022-11-16T13:38:53.209Z,99817.09
2022-11-16T13:41:28.916Z,99816.81
2022-11-16T13:43:57.042Z,99814.72
2022-11-16T13:46:55.305Z,99811.91
2022-11-16T13:49:32.150Z,99817.16
2022-11-16T13:52:21.921Z,99809.66
2022-11-16T13:54:54.746Z,99805.06
2022-11-16T13:57:26.537Z,99801.56
2022-11-16T14:00:09.680Z,99796.69
2022-11-16T14:02:40.092Z,99802.25
2022-11-16T14:05:17.607Z,99802.06
2022-11-16T14:07:49.883Z,99792.19
2022-11-16T14:11:06.783Z,99803.03
2022-11-16T14:13:39.319Z,99802.19
2022-11-16T14:16:32.882Z,99789.03
2022-11-16T14:19:03.193Z,99785.81
2022-11-16T14:21:45.635Z,99790.16
2022-11-16T14:24:26.914Z,99796.53
2022-11-16T14:27:06.074Z,99788.63
2022-11-16T14:29:49.992Z,99785.03
2022-11-16T14:32:24.589Z,99784.59
2022-11-16T14:34:55.758Z,99784.75
2022-11-16T14:37:33.833Z,99780.47
2022-11-16T14:40:09.095Z,99781.13
2022-11-16T14:43:09.595Z,99778.75
2022-11-16T14:45:36.650Z,99782.22
2022-11-16T14:48:07.441Z,99778.50
2022-11-16T14:50:40.793Z,99777.66
2022-11-16T14:53:13.464Z,99773.63
2022-11-16T14:55:46.074Z,99775.28
2022-11-16T14:58:19.327Z,99763.09
2022-11-16T15:00:55.159Z,99765.72
2022-11-16T15:03:24.969Z,99758.50
2022-11-16T15:05:53.768Z,99757.19
2022-11-16T15:08:26.008Z,99761.31
2022-11-16T15:10:58.788Z,99764.03
2022-11-16T15:13:27.085Z,99753.25
2022-11-16T15:16:09.541Z,99744.91
2022-11-16T15:18:37.583Z,99750.31
2022-11-16T15:21:06.577Z,99751.66
2022-11-16T15:23:34.850Z,99748.97
2022-11-16T15:26:04.728Z,99750.75
2022-11-16T15:28:34.058Z,99750.56
2022-11-16T15:31:04.947Z,99743.19
2022-11-16T15:33:37.067Z,99744.91
2022-11-16T15:36:24.044Z,99740.94
2022-11-16T15:38:54.089Z,99736.31
2022-11-16T15:41:25.531Z,99730.59
2022-11-16T15:44:13.442Z,99727.66
2022-11-16T15:46:44.050Z,99731.75
2022-11-16T15:49:22.829Z,99716.81
2022-11-16T15:51:50.977Z,99717.56
2022-11-16T15:54:24.112Z,99713.88
2022-11-16T15:56:56.253Z,99713.88
2022-11-16T15:59:28.872Z,99705.78
2022-11-16T16:01:57.811Z,99694.81
2022-11-16T16:04:27.370Z,99687.31
2022-11-16T16:06:57.387Z,99674.91
2022-11-16T16:09:28.372Z,99672.69
2022-11-16T16:12:16.629Z,99686.41
2022-11-16T16:14:45.572Z,99678.06
2022-11-16T16:17:23.596Z,99682.16
2022-11-16T16:19:56.881Z,99684.78
2022-11-16T16:22:31.538Z,99684.19
2022-11-16T16:25:01.511Z,99678.44
2022-11-16T16:27:32.580Z,99680.50
2022-11-16T16:30:06.648Z,99676.59
2022-11-16T16:32:36.923Z,99678.34
2022-11-16T16:35:07.814Z,99680.75
2022-11-16T16:37:36.945Z,99668.59
2022-11-16T16:40:06.063Z,99674.22
2022-11-16T16:42:35.472Z,99673.72
2022-11-16T16:45:03.648Z,99672.41
2022-11-16T16:47:32.514Z,99672.66
2022-11-16T16:50:00.510Z,99664.81
2022-11-16T16:52:28.594Z,99670.50
2022-11-16T16:54:57.133Z,99655.97
2022-11-16T16:57:25.151Z,99658.09
2022-11-16T16:59:54.969Z,99650.72
2022-11-16T17:02:25.697Z,99642.25
2022-11-16T17:04:53.798Z,99637.38
2022-11-16T17:07:21.843Z,99637.63
2022-11-16T17:09:50.003Z,99644.75
2022-11-16T17:12:18.080Z,99646.44
2022-11-16T17:14:51.375Z,99645.25
2022-11-16T17:17:21.229Z,99642.97
2022-11-16T17:19:49.182Z,99643.91
2022-11-16T17:22:17.420Z,99642.59
2022-11-16T17:24:45.441Z,99634.03
2022-11-16T17:27:13.847Z,99640.47
2022-11-16T17:29:41.912Z,99628.88
2022-11-16T17:32:09.913Z,99633.41
2022-11-16T17:34:41.477Z,99631.00
2022-11-16T17:37:09.580Z,99626.13
2022-11-16T17:39:37.657Z,99626.63
2022-11-16T17:42:06.193Z,99614.22
2022-11-16T17:44:34.270Z,99623.06
2022-11-16T17:47:02.356Z,99614.47
2022-11-16T17:49:30.345Z,99624.13
2022-11-16T17:51:59.992Z,99623.88
2022-11-16T17:54:28.599Z,99624.81
2022-11-16T17:56:56.721Z,99618.03
2022-11-16T17:59:29.236Z,99609.47
2022-11-16T18:01:59.232Z,99603.50
2022-11-16T18:04:27.899Z,99601.94
2022-11-16T18:06:56.203Z,99590.84
2022-11-16T18:09:25.684Z,99588.91
2022-11-16T18:11:53.827Z,99593.78
2022-11-16T18:14:21.802Z,99595.09
2022-11-16T18:16:50.108Z,99594.88
2022-11-16T18:19:19.833Z,99590.78
2022-11-16T18:21:48.788Z,99590.34
2022-11-16T18:24:17.099Z,99589.34
2022-11-16T18:26:46.520Z,99599.00
2022-11-16T18:29:16.196Z,99596.16
2022-11-16T18:31:44.338Z,99595.44
2022-11-16T18:34:13.752Z,99595.56
2022-11-16T18:36:41.773Z,99580.91
2022-11-16T18:39:09.849Z,99578.19
2022-11-16T18:41:38.343Z,99582.59
2022-11-16T18:44:07.930Z,99583.41
2022-11-16T18:46:36.009Z,99589.84
2022-11-16T18:49:04.064Z,99590.34
2022-11-16T18:51:32.212Z,99588.09
2022-11-16T18:54:00.308Z,99592.31
2022-11-16T18:56:28.360Z,99581.34
2022-11-16T18:58:56.462Z,99579.56
2022-11-16T19:01:27.430Z,99589.69
2022-11-16T19:03:56.820Z,99577.78
2022-11-16T19:06:25.381Z,99567.53
2022-11-16T19:08:59.760Z,99568.38
2022-11-16T19:11:29.528Z,99563.72
2022-11-16T19:14:00.550Z,99556.56
2022-11-16T19:16:29.950Z,99556.56
2022-11-16T19:18:58.133Z,99550.38
2022-11-16T19:21:26.164Z,99548.47
2022-11-16T19:23:56.254Z,99541.31
2022-11-16T19:26:26.034Z,99533.47
2022-11-16T19:28:55.097Z,99529.66
2022-11-16T19:31:24.853Z,99529.38
2022-11-16T19:33:58.002Z,99517.34
2022-11-16T19:36:27.571Z,99512.13
2022-11-16T19:38:56.235Z,99506.28
2022-11-16T19:41:24.673Z,99507.94
2022-11-16T19:43:57.260Z,99499.09
2022-11-16T19:46:25.658Z,99493.63
2022-11-16T19:48:54.574Z,99492.66
2022-11-16T19:51:25.644Z,99488.25
2022-11-16T19:53:54.293Z,99488.13
2022-11-16T19:56:24.319Z,99476.91
2022-11-16T19:58:52.836Z,99473.31
2022-11-16T20:01:23.119Z,99469.16
2022-11-16T20:03:51.337Z,99465.00
2022-11-16T20:06:21.366Z,99467.38
2022-11-16T20:08:52.412Z,99462.94
2022-11-16T20:11:23.109Z,99450.91
2022-11-16T20:13:53.061Z,99444.69
2022-11-16T20:16:23.451Z,99437.69
2022-11-16T20:18:52.573Z,99436.00
2022-11-16T20:21:24.098Z,99425.59
2022-11-16T20:23:55.648Z,99422.63
2022-11-16T20:26:24.963Z,99420.63
2022-11-16T20:28:53.922Z,99421.56
2022-11-16T20:31:23.628Z,99419.31
2022-11-16T20:33:53.591Z,99415.84
2022-11-16T20:36:22.897Z,99414.66
2022-11-16T20:38:51.173Z,99413.94
2022-11-16T20:41:22.588Z,99415.22
2022-11-16T20:43:52.631Z,99408.72
2022-11-16T20:46:24.733Z,99406.09
2022-11-16T20:48:53.447Z,99404.88
2022-11-16T20:51:23.976Z,99387.72
2022-11-16T20:53:52.343Z,99386.31
2022-11-16T20:56:22.463Z,99378.06
2022-11-16T20:58:51.232Z,99375.81
2022-11-16T21:01:21.104Z,99375.34
2022-11-16T21:03:49.239Z,99378.44
2022-11-16T21:06:17.364Z,99367.94
2022-11-16T21:08:45.619Z,99367.50
2022-11-16T21:11:15.189Z,99364.59
2022-11-16T21:14:04.035Z,99358.41
2022-11-16T21:16:32.569Z,99352.84
2022-11-16T21:19:01.250Z,99345.69
2022-11-16T21:21:29.676Z,99343.75
2022-11-16T21:23:57.823Z,99337.16
2022-11-16T21:26:27.764Z,99337.44
2022-11-16T21:28:57.837Z,99331.38
2022-11-16T21:31:27.661Z,99325.78
2022-11-16T21:33:56.826Z,99332.44
2022-11-16T21:36:26.400Z,99318.25
2022-11-16T21:38:55.078Z,99309.53
2022-11-16T21:41:25.036Z,99304.88
2022-11-16T21:43:53.042Z,99304.47
2022-11-16T21:46:24.884Z,99284.72
2022-11-16T21:48:54.539Z,99288.88
2022-11-16T21:51:24.787Z,99275.63
2022-11-16T21:53:53.246Z,99273.28
2022-11-16T21:56:24.003Z,99262.78
2022-11-16T21:58:53.250Z,99256.94
2022-11-16T22:01:24.013Z,99260.97
2022-11-16T22:04:06.261Z,99250.34
2022-11-16T22:06:51.541Z,99252.47
2022-11-16T22:09:19.684Z,99229.78
2022-11-16T22:11:47.671Z,99238.09
2022-11-16T22:14:15.702Z,99228.03
2022-11-16T22:16:45.111Z,99224.53
2022-11-16T22:19:13.142Z,99217.09
2022-11-16T22:21:41.198Z,99211.31
2022-11-16T22:24:09.725Z,99208.16
2022-11-16T22:26:39.929Z,99211.59
2022-11-16T22:29:07.971Z,99199.06
2022-11-16T22:31:36.429Z,99197.25
2022-11-16T22:34:05.899Z,99191.88
2022-11-16T22:36:34.044Z,99189.25
2022-11-16T22:39:02.574Z,99182.47
2022-11-16T22:41:30.645Z,99172.53
2022-11-16T22:43:58.650Z,99167.56
2022-11-16T22:46:26.808Z,99158.03
2022-11-16T22:48:57.131Z,99145.22
2022-11-16T22:51:27.742Z,99149.75
2022-11-16T22:53:56.753Z,99143.28
2022-11-16T22:56:25.118Z,99134.88
2022-11-16T22:58:53.773Z,99128.13
2022-11-16T23:01:22.419Z,99112.38
2022-11-16T23:03:50.769Z,99102.16
2022-11-16T23:06:18.981Z,99095.25
2022-11-16T23:08:48.810Z,99092.63
2022-11-16T23:11:36.494Z,99091.66
2022-11-16T23:14:23.258Z,99085.47
2022-11-16T23:16:51.643Z,99072.59
2022-11-16T23:19:38.838Z,99068.06
2022-11-16T23:22:26.296Z,99052.84
2022-11-16T23:25:13.034Z,99050.38
2022-11-16T23:27:43.833Z,99043.06
2022-11-16T23:30:13.531Z,99038.34
2022-11-16T23:32:42.354Z,99024.97
2022-11-16T23:35:11.444Z,99020.41
2022-11-16T23:37:54.603Z,99012.38
2022-11-16T23:40:27.286Z,99010.88
2022-11-16T23:43:12.871Z,99007.28
2022-11-16T23:45:41.265Z,98990.72
2022-11-16T23:48:10.749Z,98986.56
2022-11-16T23:50:39.305Z,98969.19
2022-11-16T23:53:09.023Z,98970.00
2022-11-16T23:55:39.921Z,98965.44
2022-11-16T23:58:09.172Z,98953.44
